Time;durP1;ratioP1;P1;durP2;ratioP2;P2;SDS_P1;SDS_P2;PMS_P1;PMS_P2;Temp;Humidity;BMP_temperature;BMP_pressure;BME280_temperature;BME280_humidity;BME280_pressure;Samples;Min_cycle;Max_cycle;Signal;HPM_P1;HPM_P2
2022/01/29 00:01:15;;;;;;;;;;;10.40;99.90;;;;;;5076308;28;19928;-88
2022/01/29 00:03:42;;;;;;;;;;;10.40;99.90;;;;;;5095025;28;19964;-89
2022/01/29 00:06:11;;;;;;;;;;;10.40;99.90;;;;;;5096095;28;19927;-88
2022/01/29 00:08:37;;;;;;;;;;;10.40;99.90;;;;;;5096484;28;19950;-88
2022/01/29 00:11:09;;;;;;;;;;;10.40;99.90;;;;;;5097122;28;19925;-88
2022/01/29 00:13:37;;;;;;;;;;;10.50;99.90;;;;;;5096994;28;19932;-88
2022/01/29 00:16:04;;;;;;;;;;;10.50;99.90;;;;;;5097440;28;19932;-88
2022/01/29 00:18:30;;;;;;;;;;;10.40;99.90;;;;;;5101627;28;20403;-87
2022/01/29 00:20:57;;;;;;;;;;;10.40;99.90;;;;;;5101423;28;19924;-88
2022/01/29 00:23:25;;;;;;;;;;;10.40;99.90;;;;;;5101615;28;20396;-87
2022/01/29 00:25:52;;;;;;;;;;;10.40;99.90;;;;;;5098057;28;19928;-88
2022/01/29 00:28:19;;;;;;;;;;;10.40;99.90;;;;;;5096829;28;19924;-89
2022/01/29 00:30:46;;;;;;;;;;;10.40;99.90;;;;;;5096047;28;19924;-89
2022/01/29 00:33:14;;;;;;;;;;;8.70;99.90;;;;;;5096279;28;19924;-88
2022/01/29 00:35:43;;;;;;;;;;;9.30;99.90;;;;;;5096256;28;19977;-88
2022/01/29 00:38:10;;;;;;;;;;;10.80;99.90;;;;;;5096671;28;19942;-89
2022/01/29 00:40:38;;;;;;;;;;;10.70;99.90;;;;;;5096086;28;19934;-88
2022/01/29 00:43:06;;;;;;;;;;;10.80;99.90;;;;;;5096308;28;19931;-88
2022/01/29 00:45:36;;;;;;;;;;;10.60;99.90;;;;;;5096166;28;20385;-89
2022/01/29 00:48:06;;;;;;;;;;;10.80;99.90;;;;;;5096254;28;19924;-88
2022/01/29 00:50:33;;;;;;;;;;;10.50;99.90;;;;;;5095772;28;20393;-88
2022/01/29 00:53:01;;;;;;;;;;;10.60;99.90;;;;;;5095981;28;19928;-88
2022/01/29 00:55:27;;;;;;;;;;;10.70;99.90;;;;;;5095617;28;20458;-88
2022/01/29 00:57:56;;;;;;;;;;;10.60;99.90;;;;;;5095964;28;19924;-88
2022/01/29 01:00:22;;;;;;;;;;;11.00;99.90;;;;;;5095753;28;19924;-87
2022/01/29 01:02:49;;;;;;;;;;;10.80;99.90;;;;;;5095592;28;19924;-88
2022/01/29 01:05:16;;;;;;;;;;;10.70;99.90;;;;;;5096040;28;19924;-88
2022/01/29 01:07:43;;;;;;;;;;;10.80;99.90;;;;;;5095727;28;19977;-89
2022/01/29 01:10:10;;;;;;;;;;;10.80;99.90;;;;;;5095231;28;19924;-88
2022/01/29 01:12:37;;;;;;;;;;;10.80;99.90;;;;;;5095663;28;19974;-88
2022/01/29 01:15:06;;;;;;;;;;;10.90;99.90;;;;;;5095339;28;19924;-89
2022/01/29 01:17:33;;;;;;;;;;;10.90;99.90;;;;;;5095526;28;19924;-88
2022/01/29 01:19:59;;;;;;;;;;;11.00;99.90;;;;;;5095324;28;20363;-87
2022/01/29 01:22:26;;;;;;;;;;;11.10;99.90;;;;;;5095379;28;19989;-88
2022/01/29 01:24:53;;;;;;;;;;;11.00;99.90;;;;;;5095425;28;20331;-88
2022/01/29 01:27:20;;;;;;;;;;;11.10;99.90;;;;;;5095673;28;19924;-87
2022/01/29 01:29:47;;;;;;;;;;;11.30;99.90;;;;;;5096357;28;19932;-88
2022/01/29 01:32:15;;;;;;;;;;;11.20;99.90;;;;;;5094041;28;19924;-88
2022/01/29 01:34:46;;;;;;;;;;;11.20;99.90;;;;;;5095155;28;20270;-87
2022/01/29 01:37:19;;;;;;;;;;;11.30;99.90;;;;;;5095125;28;19974;-88
2022/01/29 01:39:46;;;;;;;;;;;11.20;99.90;;;;;;5094910;28;19924;-88
2022/01/29 01:42:13;;;;;;;;;;;11.40;99.90;;;;;;5094745;28;19924;-87
2022/01/29 01:44:43;;;;;;;;;;;11.20;99.90;;;;;;5094789;28;19924;-87
2022/01/29 01:47:10;;;;;;;;;;;11.20;99.90;;;;;;5095117;28;19924;-87
2022/01/29 01:49:38;;;;;;;;;;;11.20;99.90;;;;;;5094795;28;20347;-88
2022/01/29 01:52:07;;;;;;;;;;;11.20;99.90;;;;;;5095037;28;19959;-88
2022/01/29 01:54:34;;;;;;;;;;;11.20;99.90;;;;;;5088051;28;20023;-88
2022/01/29 01:57:01;;;;;;;;;;;11.20;99.90;;;;;;5074758;28;19956;-88
2022/01/29 01:59:28;;;;;;;;;;;11.30;99.90;;;;;;5074732;28;20007;-88
2022/01/29 02:01:55;;;;;;;;;;;11.30;99.90;;;;;;5079130;28;19928;-88
2022/01/29 02:04:21;;;;;;;;;;;11.30;99.90;;;;;;5094497;28;19924;-88
2022/01/29 02:06:51;;;;;;;;;;;11.30;99.90;;;;;;5094556;28;19981;-88
2022/01/29 02:09:20;;;;;;;;;;;11.30;99.90;;;;;;5094275;28;19924;-89
2022/01/29 02:11:50;;;;;;;;;;;11.30;99.90;;;;;;5094527;28;19928;-88
2022/01/29 02:14:18;;;;;;;;;;;11.40;99.90;;;;;;5094045;28;19931;-87
2022/01/29 02:16:45;;;;;;;;;;;11.30;99.90;;;;;;5094450;28;19977;-88
2022/01/29 02:19:11;;;;;;;;;;;11.30;99.90;;;;;;5095616;28;19924;-88
2022/01/29 02:21:40;;;;;;;;;;;11.40;99.90;;;;;;5097733;28;20434;-88
2022/01/29 02:24:07;;;;;;;;;;;11.40;99.90;;;;;;5097819;28;19924;-88
2022/01/29 02:26:34;;;;;;;;;;;11.40;99.90;;;;;;5098151;28;19924;-88
2022/01/29 02:29:01;;;;;;;;;;;11.40;99.90;;;;;;5094908;28;19932;-89
2022/01/29 02:31:28;;;;;;;;;;;11.40;99.90;;;;;;5094677;28;19969;-88
2022/01/29 02:33:54;;;;;;;;;;;11.40;99.90;;;;;;5094511;28;19964;-88
2022/01/29 02:36:21;;;;;;;;;;;11.40;99.90;;;;;;5094446;28;19998;-88
2022/01/29 02:38:50;;;;;;;;;;;11.40;99.90;;;;;;5094301;28;19982;-88
2022/01/29 02:41:17;;;;;;;;;;;11.40;99.90;;;;;;5094312;28;19966;-88
2022/01/29 02:43:46;;;;;;;;;;;11.40;99.90;;;;;;5094439;28;19925;-88
2022/01/29 02:46:28;;;;;;;;;;;11.30;99.90;;;;;;5094339;28;19924;-87
2022/01/29 02:48:56;;;;;;;;;;;11.40;99.90;;;;;;5094585;28;19924;-87
2022/01/29 02:51:23;;;;;;;;;;;11.30;99.90;;;;;;5094884;28;19924;-88
2022/01/29 02:53:51;;;;;;;;;;;11.30;99.90;;;;;;5098328;28;19975;-88
2022/01/29 02:56:18;;;;;;;;;;;11.30;99.90;;;;;;5098340;28;19924;-87
2022/01/29 02:58:46;;;;;;;;;;;11.30;99.90;;;;;;5098143;28;19985;-87
2022/01/29 03:01:13;;;;;;;;;;;11.30;99.90;;;;;;5097859;28;19924;-88
2022/01/29 03:03:39;;;;;;;;;;;11.30;99.90;;;;;;5097623;28;20454;-88
2022/01/29 03:06:09;;;;;;;;;;;11.30;99.90;;;;;;5097749;28;19924;-88
2022/01/29 03:08:36;;;;;;;;;;;11.30;99.90;;;;;;5097656;28;19931;-88
2022/01/29 03:11:04;;;;;;;;;;;11.30;99.90;;;;;;5097779;28;19924;-88
2022/01/29 03:13:31;;;;;;;;;;;11.40;99.90;;;;;;5097726;28;20373;-88
2022/01/29 03:15:57;;;;;;;;;;;11.40;99.90;;;;;;5097913;28;19929;-88
2022/01/29 03:18:24;;;;;;;;;;;11.50;99.90;;;;;;5097491;28;19954;-88
2022/01/29 03:20:51;;;;;;;;;;;11.50;99.90;;;;;;5090096;28;19928;-88
2022/01/29 03:23:18;;;;;;;;;;;11.50;99.90;;;;;;5097613;28;19924;-88
2022/01/29 03:25:45;;;;;;;;;;;11.50;99.90;;;;;;5097285;28;19924;-88
2022/01/29 03:28:13;;;;;;;;;;;11.50;99.90;;;;;;5097622;28;20079;-88
2022/01/29 03:30:40;;;;;;;;;;;11.60;99.90;;;;;;5097211;28;19932;-88
2022/01/29 03:33:06;;;;;;;;;;;11.60;99.90;;;;;;5097258;28;19968;-88
2022/01/29 03:35:33;;;;;;;;;;;11.60;99.90;;;;;;5097471;28;19967;-88
2022/01/29 03:38:00;;;;;;;;;;;11.50;99.90;;;;;;5097566;28;19928;-88
2022/01/29 03:40:28;;;;;;;;;;;11.80;99.90;;;;;;5097348;28;19978;-87
2022/01/29 03:43:01;;;;;;;;;;;11.80;99.90;;;;;;5097550;28;19930;-88
2022/01/29 03:45:30;;;;;;;;;;;11.70;99.90;;;;;;5097456;28;19924;-88
2022/01/29 03:47:56;;;;;;;;;;;11.70;99.90;;;;;;5097170;28;19924;-88
2022/01/29 03:50:23;;;;;;;;;;;11.70;99.90;;;;;;5097080;28;19977;-88
2022/01/29 03:52:50;;;;;;;;;;;11.60;99.90;;;;;;5096984;28;19982;-88
2022/01/29 03:55:17;;;;;;;;;;;11.70;99.90;;;;;;5096916;28;19924;-88
2022/01/29 03:57:43;;;;;;;;;;;11.70;99.90;;;;;;5097476;28;19986;-87
2022/01/29 04:00:11;;;;;;;;;;;11.60;99.90;;;;;;5093050;28;19981;-88
2022/01/29 04:02:39;;;;;;;;;;;11.50;99.90;;;;;;5096704;28;20018;-87
2022/01/29 04:05:06;;;;;;;;;;;11.50;99.90;;;;;;5097045;28;19924;-87
2022/01/29 04:07:33;;;;;;;;;;;11.50;99.90;;;;;;5096822;28;19981;-88
2022/01/29 04:09:59;;;;;;;;;;;11.50;99.90;;;;;;5096668;28;19930;-88
2022/01/29 04:12:30;;;;;;;;;;;11.40;99.90;;;;;;5096605;28;19931;-88
2022/01/29 04:14:58;;;;;;;;;;;11.40;99.90;;;;;;5096698;28;20277;-88
2022/01/29 04:17:25;;;;;;;;;;;11.30;99.90;;;;;;5096699;28;20014;-89
2022/01/29 04:19:53;;;;;;;;;;;11.30;99.90;;;;;;5096365;28;20450;-88
2022/01/29 04:22:20;;;;;;;;;;;11.40;99.90;;;;;;5099270;28;19927;-88
2022/01/29 04:24:47;;;;;;;;;;;11.20;99.90;;;;;;5100423;28;19952;-88
2022/01/29 04:27:18;;;;;;;;;;;11.10;99.90;;;;;;5099800;28;19925;-88
2022/01/29 04:29:55;;;;;;;;;;;11.30;99.90;;;;;;5097781;28;19931;-88
2022/01/29 04:32:29;;;;;;;;;;;11.30;99.90;;;;;;5096208;28;20403;-88
2022/01/29 04:34:57;;;;;;;;;;;11.30;99.90;;;;;;5095844;28;19947;-88
2022/01/29 04:37:24;;;;;;;;;;;11.30;99.90;;;;;;5095850;28;20344;-88
2022/01/29 04:39:51;;;;;;;;;;;11.30;99.90;;;;;;5095405;28;19977;-88
2022/01/29 04:42:18;;;;;;;;;;;11.40;99.90;;;;;;5095265;28;19967;-89
2022/01/29 04:44:44;;;;;;;;;;;11.30;99.90;;;;;;5096069;28;19970;-88
2022/01/29 04:47:11;;;;;;;;;;;11.00;99.90;;;;;;5096084;28;19924;-88
2022/01/29 04:49:38;;;;;;;;;;;11.20;99.90;;;;;;5096098;28;19924;-88
2022/01/29 04:52:06;;;;;;;;;;;11.10;99.90;;;;;;5095762;28;19975;-88
2022/01/29 04:54:34;;;;;;;;;;;11.10;99.90;;;;;;5095916;28;19924;-88
2022/01/29 04:57:00;;;;;;;;;;;11.10;99.90;;;;;;5095972;28;19998;-88
2022/01/29 04:59:27;;;;;;;;;;;11.10;99.90;;;;;;5095847;28;19956;-88
2022/01/29 05:01:54;;;;;;;;;;;10.60;99.90;;;;;;5095731;28;19924;-89
2022/01/29 05:04:20;;;;;;;;;;;11.10;99.90;;;;;;5095396;28;19974;-87
2022/01/29 05:06:47;;;;;;;;;;;11.10;99.90;;;;;;5095758;28;19970;-88
2022/01/29 05:09:16;;;;;;;;;;;11.10;99.90;;;;;;5095518;28;20340;-88
2022/01/29 05:11:46;;;;;;;;;;;11.10;99.90;;;;;;5095352;28;19931;-87
2022/01/29 05:14:22;;;;;;;;;;;11.10;99.90;;;;;;5094708;28;19924;-87
2022/01/29 05:17:18;;;;;;;;;;;11.10;99.90;;;;;;5095497;28;19924;-88
2022/01/29 05:27:56;;;;;;;;;;;11.20;99.90;;;;;;5095295;28;20423;-87
2022/01/29 05:30:23;;;;;;;;;;;11.30;99.90;;;;;;5095165;28;19974;-88
2022/01/29 05:32:50;;;;;;;;;;;11.10;99.90;;;;;;5095029;28;20005;-88
2022/01/29 05:35:17;;;;;;;;;;;11.30;99.90;;;;;;5095211;28;19925;-88
2022/01/29 05:37:46;;;;;;;;;;;11.20;99.90;;;;;;5094990;28;19924;-88
2022/01/29 05:40:14;;;;;;;;;;;11.20;99.90;;;;;;5095045;28;19925;-88
2022/01/29 05:42:41;;;;;;;;;;;11.20;99.90;;;;;;5094976;28;19954;-87
2022/01/29 05:45:08;;;;;;;;;;;11.20;99.90;;;;;;5094843;28;19970;-88
2022/01/29 05:47:35;;;;;;;;;;;11.10;99.90;;;;;;5095016;28;19969;-88
2022/01/29 05:50:02;;;;;;;;;;;11.00;99.90;;;;;;5094713;28;19924;-88
2022/01/29 05:52:28;;;;;;;;;;;11.00;99.90;;;;;;5095148;28;19924;-88
2022/01/29 05:54:55;;;;;;;;;;;11.00;99.90;;;;;;5095179;28;19971;-88
2022/01/29 05:57:23;;;;;;;;;;;11.00;99.90;;;;;;5095000;28;19970;-89
2022/01/29 05:59:50;;;;;;;;;;;11.00;99.90;;;;;;5094742;28;19928;-88
2022/01/29 06:02:17;;;;;;;;;;;10.90;99.90;;;;;;5094591;28;20338;-88
2022/01/29 06:04:44;;;;;;;;;;;10.90;99.90;;;;;;5094529;28;20308;-88
2022/01/29 06:07:10;;;;;;;;;;;10.80;99.90;;;;;;5094946;28;20345;-88
2022/01/29 06:09:37;;;;;;;;;;;10.80;99.90;;;;;;5076958;28;20362;-88
2022/01/29 06:12:04;;;;;;;;;;;10.80;99.90;;;;;;5074601;28;19977;-88
2022/01/29 06:14:32;;;;;;;;;;;10.80;99.90;;;;;;5074396;28;19982;-87
2022/01/29 06:16:59;;;;;;;;;;;10.80;99.90;;;;;;5074451;28;19967;-88
2022/01/29 06:19:26;;;;;;;;;;;10.80;99.90;;;;;;5074222;28;19928;-88
2022/01/29 06:21:53;;;;;;;;;;;10.90;99.90;;;;;;5074746;28;19924;-88
2022/01/29 06:24:19;;;;;;;;;;;10.90;99.90;;;;;;5076704;28;19934;-88
2022/01/29 06:26:46;;;;;;;;;;;10.80;99.90;;;;;;5080507;28;19970;-88
2022/01/29 06:29:13;;;;;;;;;;;10.90;99.90;;;;;;5088085;28;19924;-89
2022/01/29 06:31:41;;;;;;;;;;;10.80;99.90;;;;;;5101827;28;19924;-88
2022/01/29 06:34:08;;;;;;;;;;;10.80;99.90;;;;;;5098962;28;19926;-88
2022/01/29 06:36:34;;;;;;;;;;;10.80;99.90;;;;;;5098472;28;19924;-88
2022/01/29 06:39:01;;;;;;;;;;;10.80;99.90;;;;;;5098064;28;20377;-88
2022/01/29 06:41:28;;;;;;;;;;;10.80;99.90;;;;;;5098140;28;19925;-88
2022/01/29 06:43:55;;;;;;;;;;;10.80;99.90;;;;;;5098269;28;19931;-88
2022/01/29 06:46:21;;;;;;;;;;;10.90;99.90;;;;;;5098152;28;19931;-87
2022/01/29 06:48:49;;;;;;;;;;;10.90;99.90;;;;;;5097837;28;19928;-88
2022/01/29 06:51:17;;;;;;;;;;;11.00;99.90;;;;;;5098518;28;19931;-88
2022/01/29 06:53:43;;;;;;;;;;;10.90;99.90;;;;;;5097750;28;20286;-88
2022/01/29 06:56:10;;;;;;;;;;;10.90;99.90;;;;;;5097283;28;19924;-88
2022/01/29 06:58:37;;;;;;;;;;;10.90;99.90;;;;;;5098035;28;20000;-88
2022/01/29 07:01:04;;;;;;;;;;;10.80;99.90;;;;;;5097954;28;19924;-87
2022/01/29 07:03:31;;;;;;;;;;;10.90;99.90;;;;;;5098048;28;19932;-88
2022/01/29 07:05:59;;;;;;;;;;;10.90;99.90;;;;;;5098173;28;19924;-88
2022/01/29 07:08:25;;;;;;;;;;;10.80;99.90;;;;;;5098093;28;19928;-88
2022/01/29 07:10:52;;;;;;;;;;;10.90;99.90;;;;;;5098067;28;19985;-88
2022/01/29 07:13:21;;;;;;;;;;;10.90;99.90;;;;;;5097766;28;20018;-88
2022/01/29 07:15:47;;;;;;;;;;;10.90;99.90;;;;;;5097815;28;19924;-88
2022/01/29 07:18:14;;;;;;;;;;;10.90;99.90;;;;;;5098009;28;20378;-88
2022/01/29 07:20:41;;;;;;;;;;;10.90;99.90;;;;;;5097838;28;19981;-88
2022/01/29 07:23:09;;;;;;;;;;;10.90;99.90;;;;;;5097972;28;19970;-88
2022/01/29 07:25:35;;;;;;;;;;;10.90;99.90;;;;;;5097330;28;19928;-88
2022/01/29 07:28:02;;;;;;;;;;;11.00;99.90;;;;;;5097523;28;19970;-87
2022/01/29 07:30:29;;;;;;;;;;;11.00;99.90;;;;;;5096988;28;19977;-88
2022/01/29 07:32:56;;;;;;;;;;;11.10;99.90;;;;;;5097345;28;19974;-88
2022/01/29 07:35:23;;;;;;;;;;;11.10;99.90;;;;;;5097689;28;19971;-88
2022/01/29 07:37:50;;;;;;;;;;;11.10;99.90;;;;;;5096818;28;19953;-88
2022/01/29 07:40:18;;;;;;;;;;;11.20;99.90;;;;;;5097539;28;19924;-88
2022/01/29 07:42:44;;;;;;;;;;;11.20;99.90;;;;;;5097400;28;19924;-88
2022/01/29 07:45:11;;;;;;;;;;;10.40;99.90;;;;;;5097237;28;20347;-89
2022/01/29 07:47:38;;;;;;;;;;;11.20;99.90;;;;;;5096927;28;19928;-88
2022/01/29 07:50:05;;;;;;;;;;;11.30;99.90;;;;;;5097154;28;19924;-88
2022/01/29 07:52:32;;;;;;;;;;;11.00;99.90;;;;;;5098059;28;19928;-88
2022/01/29 07:54:59;;;;;;;;;;;11.40;99.90;;;;;;5096473;28;19931;-88
2022/01/29 07:57:27;;;;;;;;;;;11.40;99.90;;;;;;5098603;28;19928;-88
2022/01/29 07:59:54;;;;;;;;;;;11.40;99.90;;;;;;5097608;28;19924;-87
2022/01/29 08:02:21;;;;;;;;;;;11.40;99.90;;;;;;5094721;28;20027;-88
2022/01/29 08:04:48;;;;;;;;;;;11.50;99.90;;;;;;5095604;28;20438;-88
2022/01/29 08:07:15;;;;;;;;;;;11.50;99.90;;;;;;5097418;28;19971;-87
2022/01/29 08:09:41;;;;;;;;;;;11.50;99.90;;;;;;5097012;28;20033;-87
2022/01/29 08:12:09;;;;;;;;;;;11.60;99.90;;;;;;5097065;28;19969;-87
2022/01/29 08:14:37;;;;;;;;;;;11.70;99.90;;;;;;5096756;28;19963;-87
2022/01/29 08:17:04;;;;;;;;;;;11.90;99.90;;;;;;5096381;28;20397;-87
2022/01/29 08:19:31;;;;;;;;;;;12.00;99.90;;;;;;5096559;28;20373;-87
2022/01/29 08:21:58;;;;;;;;;;;12.10;99.90;;;;;;5097758;28;19924;-87
2022/01/29 08:24:24;;;;;;;;;;;12.10;99.90;;;;;;5096725;28;19978;-88
2022/01/29 08:26:51;;;;;;;;;;;12.10;99.90;;;;;;5101148;28;19928;-87
2022/01/29 08:29:18;;;;;;;;;;;12.20;99.90;;;;;;5100031;28;19963;-87
2022/01/29 08:31:46;;;;;;;;;;;12.20;99.90;;;;;;5102025;28;19970;-86
2022/01/29 08:34:13;;;;;;;;;;;12.20;99.90;;;;;;5100186;28;19931;-87
2022/01/29 08:36:39;;;;;;;;;;;12.30;99.90;;;;;;5096300;28;20001;-88
2022/01/29 08:39:06;;;;;;;;;;;12.40;99.90;;;;;;5096131;28;19924;-87
2022/01/29 08:41:33;;;;;;;;;;;12.30;99.90;;;;;;5096318;28;19924;-87
2022/01/29 08:44:00;;;;;;;;;;;12.30;99.90;;;;;;5095703;28;19925;-87
2022/01/29 08:46:27;;;;;;;;;;;12.40;99.90;;;;;;5096102;28;19924;-88
2022/01/29 08:48:55;;;;;;;;;;;12.40;99.90;;;;;;5095860;28;19924;-88
2022/01/29 08:51:21;;;;;;;;;;;12.50;99.90;;;;;;5098283;28;19928;-86
2022/01/29 08:53:48;;;;;;;;;;;12.50;99.90;;;;;;5096855;28;19970;-88
2022/01/29 08:56:16;;;;;;;;;;;12.60;99.90;;;;;;5095927;28;19966;-87
2022/01/29 08:58:42;;;;;;;;;;;12.60;99.90;;;;;;5095606;28;19928;-87
2022/01/29 09:01:09;;;;;;;;;;;12.60;99.90;;;;;;5095319;28;20325;-88
2022/01/29 09:03:36;;;;;;;;;;;12.70;99.90;;;;;;5095393;28;19928;-88
2022/01/29 09:06:04;;;;;;;;;;;12.80;99.90;;;;;;5096334;28;19924;-88
2022/01/29 09:08:31;;;;;;;;;;;12.70;99.90;;;;;;5094658;28;20021;-88
2022/01/29 09:10:58;;;;;;;;;;;12.80;99.90;;;;;;5095289;28;20415;-88
2022/01/29 09:13:25;;;;;;;;;;;12.80;99.90;;;;;;5095848;28;19985;-89
2022/01/29 09:15:52;;;;;;;;;;;12.80;99.90;;;;;;5094356;28;19928;-89
2022/01/29 09:18:19;;;;;;;;;;;12.90;99.90;;;;;;5095610;28;20373;-89
2022/01/29 09:20:46;;;;;;;;;;;13.00;99.90;;;;;;5096758;28;19928;-89
2022/01/29 09:23:14;;;;;;;;;;;12.90;99.90;;;;;;5097494;28;20366;-88
2022/01/29 09:25:41;;;;;;;;;;;13.00;99.90;;;;;;5095901;28;19981;-88
2022/01/29 09:28:08;;;;;;;;;;;13.60;99.90;;;;;;5095335;28;19924;-88
2022/01/29 09:30:35;;;;;;;;;;;13.00;99.90;;;;;;5095287;28;19924;-89
2022/01/29 09:33:02;;;;;;;;;;;13.00;99.90;;;;;;5095146;28;19928;-88
2022/01/29 09:35:29;;;;;;;;;;;13.00;99.90;;;;;;5095031;28;20397;-89
2022/01/29 09:37:56;;;;;;;;;;;13.00;99.90;;;;;;5094598;28;19924;-89
2022/01/29 09:40:25;;;;;;;;;;;13.00;99.90;;;;;;5095326;28;19924;-89
2022/01/29 09:42:52;;;;;;;;;;;13.00;99.90;;;;;;5095345;28;19928;-88
2022/01/29 09:45:20;;;;;;;;;;;13.10;99.90;;;;;;5095068;28;20391;-88
2022/01/29 09:47:48;;;;;;;;;;;13.00;99.90;;;;;;5095448;28;19931;-87
2022/01/29 09:50:15;;;;;;;;;;;13.20;99.90;;;;;;5097448;28;19985;-88
2022/01/29 09:52:43;;;;;;;;;;;13.10;99.90;;;;;;5096309;28;19974;-90
2022/01/29 09:55:10;;;;;;;;;;;13.10;99.90;;;;;;5096439;28;19973;-88
2022/01/29 09:57:39;;;;;;;;;;;13.10;99.90;;;;;;5094622;28;19985;-87
2022/01/29 10:00:07;;;;;;;;;;;13.20;99.90;;;;;;5095417;28;20284;-89
2022/01/29 10:02:34;;;;;;;;;;;13.20;99.90;;;;;;5099435;28;19928;-89
2022/01/29 10:05:00;;;;;;;;;;;13.20;99.90;;;;;;5095171;28;19924;-86
2022/01/29 10:07:29;;;;;;;;;;;13.20;99.90;;;;;;5096040;28;19935;-88
2022/01/29 10:09:56;;;;;;;;;;;13.20;99.90;;;;;;5094888;28;19975;-89
2022/01/29 10:12:27;;;;;;;;;;;13.20;99.90;;;;;;5094515;28;20371;-87
2022/01/29 10:14:58;;;;;;;;;;;13.10;99.90;;;;;;5098645;28;19930;-88
2022/01/29 10:17:41;;;;;;;;;;;13.30;99.90;;;;;;5096541;28;19925;-88
2022/01/29 10:20:13;;;;;;;;;;;13.10;99.90;;;;;;5094494;28;19924;-87
2022/01/29 10:22:40;;;;;;;;;;;13.30;99.90;;;;;;5094792;28;19924;-88
2022/01/29 10:25:07;;;;;;;;;;;13.30;99.90;;;;;;5095589;28;19924;-88
2022/01/29 10:27:34;;;;;;;;;;;13.30;99.90;;;;;;5100404;28;19931;-88
2022/01/29 10:30:04;;;;;;;;;;;13.20;99.90;;;;;;5105872;28;19932;-88
2022/01/29 10:32:33;;;;;;;;;;;13.20;99.90;;;;;;5111814;28;19924;-87
2022/01/29 10:35:00;;;;;;;;;;;13.30;99.90;;;;;;5106001;28;20297;-88
2022/01/29 10:37:27;;;;;;;;;;;13.00;99.90;;;;;;5095008;28;20274;-88
2022/01/29 10:39:54;;;;;;;;;;;12.90;99.90;;;;;;5094318;28;19962;-88
2022/01/29 10:42:23;;;;;;;;;;;12.80;99.90;;;;;;5094520;28;19924;-88
2022/01/29 10:44:51;;;;;;;;;;;12.70;99.90;;;;;;5095042;28;19962;-88
2022/01/29 10:47:20;;;;;;;;;;;12.70;99.90;;;;;;5094946;28;19928;-88
2022/01/29 10:49:51;;;;;;;;;;;12.60;99.90;;;;;;5094517;28;19932;-88
2022/01/29 10:52:18;;;;;;;;;;;12.60;99.90;;;;;;5094129;28;19924;-88
2022/01/29 10:54:47;;;;;;;;;;;12.60;99.90;;;;;;5095239;28;19993;-88
2022/01/29 10:57:15;;;;;;;;;;;12.70;99.90;;;;;;5095420;28;20026;-88
2022/01/29 10:59:47;;;;;;;;;;;12.70;99.90;;;;;;5095309;28;19939;-88
2022/01/29 11:02:14;;;;;;;;;;;12.70;99.90;;;;;;5096221;28;19924;-87
2022/01/29 11:04:43;;;;;;;;;;;12.70;99.90;;;;;;5094489;28;19924;-87
2022/01/29 11:07:14;;;;;;;;;;;12.70;99.90;;;;;;5093821;28;19978;-87
2022/01/29 11:09:42;;;;;;;;;;;12.60;99.90;;;;;;5094561;28;19927;-87
2022/01/29 11:12:10;;;;;;;;;;;12.70;99.90;;;;;;5095278;28;19960;-89
2022/01/29 11:14:38;;;;;;;;;;;12.40;99.90;;;;;;5097806;28;19996;-88
2022/01/29 11:17:05;;;;;;;;;;;12.10;99.90;;;;;;5096986;28;19975;-90
2022/01/29 11:19:32;;;;;;;;;;;12.30;99.90;;;;;;5097161;28;19925;-88
2022/01/29 11:22:02;;;;;;;;;;;12.30;99.90;;;;;;5097693;28;19924;-88
2022/01/29 11:24:29;;;;;;;;;;;12.20;99.90;;;;;;5097403;28;20004;-88
2022/01/29 11:26:56;;;;;;;;;;;12.20;99.90;;;;;;5096924;28;19977;-88
2022/01/29 11:29:27;;;;;;;;;;;12.10;99.90;;;;;;5098304;28;19924;-88
2022/01/29 11:32:12;;;;;;;;;;;12.00;99.90;;;;;;5098701;28;20018;-88
2022/01/29 11:34:54;;;;;;;;;;;11.80;99.90;;;;;;5097449;28;19963;-88
2022/01/29 11:37:36;;;;;;;;;;;11.70;99.90;;;;;;5096253;28;19977;-89
2022/01/29 11:40:14;;;;;;;;;;;11.70;99.90;;;;;;5096798;28;20343;-87
2022/01/29 11:42:52;;;;;;;;;;;11.50;99.90;;;;;;5098161;28;19946;-89
2022/01/29 11:45:45;;;;;;;;;;;11.40;99.90;;;;;;5096882;28;19924;-89
2022/01/29 11:48:28;;;;;;;;;;;11.30;99.90;;;;;;5074187;28;19924;-87
2022/01/29 11:50:55;;;;;;;;;;;11.20;99.90;;;;;;5095861;28;19924;-88
2022/01/29 11:53:25;;;;;;;;;;;11.30;99.90;;;;;;5096178;28;20326;-88
2022/01/29 11:55:53;;;;;;;;;;;11.30;99.90;;;;;;5096282;28;20369;-88
2022/01/29 11:58:24;;;;;;;;;;;11.30;99.90;;;;;;5096918;28;19970;-88
2022/01/29 12:00:52;;;;;;;;;;;11.30;99.90;;;;;;5097426;28;19950;-88
2022/01/29 12:03:40;;;;;;;;;;;11.30;99.90;;;;;;5096729;28;19969;-88
2022/01/29 12:06:11;;;;;;;;;;;11.40;99.90;;;;;;5082071;28;19924;-87
2022/01/29 12:09:04;;;;;;;;;;;11.40;99.90;;;;;;5094508;28;19925;-89
2022/01/29 12:11:33;;;;;;;;;;;11.40;99.90;;;;;;5096050;28;20325;-88
2022/01/29 12:14:19;;;;;;;;;;;11.40;99.90;;;;;;5092368;28;19946;-88
2022/01/29 12:16:48;;;;;;;;;;;11.40;99.90;;;;;;5096115;28;19924;-89
2022/01/29 12:19:29;;;;;;;;;;;11.40;99.90;;;;;;5098262;28;19947;-88
2022/01/29 12:21:56;;;;;;;;;;;11.40;99.90;;;;;;5097517;28;19973;-88
2022/01/29 12:24:23;;;;;;;;;;;11.50;99.90;;;;;;5096623;28;19973;-89
2022/01/29 12:26:55;;;;;;;;;;;11.50;99.90;;;;;;5097402;28;20378;-86
2022/01/29 12:29:22;;;;;;;;;;;11.50;99.90;;;;;;5104533;28;19924;-88
2022/01/29 12:31:49;;;;;;;;;;;11.50;99.90;;;;;;5108375;28;19924;-87
2022/01/29 12:34:16;;;;;;;;;;;11.50;99.90;;;;;;5107869;28;19925;-87
2022/01/29 12:36:43;;;;;;;;;;;11.40;99.90;;;;;;5097746;28;19928;-88
2022/01/29 12:39:20;;;;;;;;;;;11.50;99.90;;;;;;5096917;28;19982;-87
2022/01/29 12:42:01;;;;;;;;;;;11.40;99.90;;;;;;5096064;28;19951;-88
2022/01/29 12:44:29;;;;;;;;;;;10.30;99.90;;;;;;5096934;28;19963;-87
2022/01/29 12:46:56;;;;;;;;;;;11.40;99.90;;;;;;5097612;28;19924;-89
2022/01/29 12:49:23;;;;;;;;;;;13.40;99.90;;;;;;5096338;28;19932;-87
2022/01/29 12:51:51;;;;;;;;;;;11.40;99.90;;;;;;5096041;28;19931;-87
2022/01/29 12:54:18;;;;;;;;;;;11.40;99.90;;;;;;5096417;28;19924;-88
2022/01/29 12:56:45;;;;;;;;;;;11.50;99.90;;;;;;5096512;28;19928;-87
2022/01/29 12:59:13;;;;;;;;;;;11.40;99.90;;;;;;5096905;28;19924;-86
2022/01/29 13:01:42;;;;;;;;;;;11.40;99.90;;;;;;5089224;28;19924;-88
2022/01/29 13:04:11;;;;;;;;;;;11.10;99.90;;;;;;5095586;28;19985;-88
2022/01/29 13:06:43;;;;;;;;;;;11.20;99.90;;;;;;5092525;28;19931;-88
2022/01/29 13:09:16;;;;;;;;;;;11.00;99.90;;;;;;5098896;28;19924;-88
2022/01/29 13:11:43;;;;;;;;;;;11.20;99.90;;;;;;5097358;28;19927;-88
2022/01/29 13:14:11;;;;;;;;;;;11.20;99.90;;;;;;5094707;28;19928;-87
2022/01/29 13:16:38;;;;;;;;;;;11.10;99.90;;;;;;5095964;28;19924;-87
2022/01/29 13:19:07;;;;;;;;;;;11.10;99.90;;;;;;5095063;28;19931;-87
2022/01/29 13:21:34;;;;;;;;;;;11.10;99.90;;;;;;5095997;28;19932;-87
2022/01/29 13:24:02;;;;;;;;;;;11.00;99.90;;;;;;5096495;28;20420;-88
2022/01/29 13:26:30;;;;;;;;;;;10.90;99.90;;;;;;5094880;28;20382;-88
2022/01/29 13:28:59;;;;;;;;;;;10.80;99.90;;;;;;5090695;28;19986;-88
2022/01/29 13:31:26;;;;;;;;;;;10.70;99.90;;;;;;5093942;28;19924;-87
2022/01/29 13:33:53;;;;;;;;;;;10.70;99.90;;;;;;5093184;28;20390;-88
2022/01/29 13:36:32;;;;;;;;;;;10.70;99.90;;;;;;5085018;28;20051;-89
2022/01/29 13:39:06;;;;;;;;;;;11.10;99.90;;;;;;5094039;28;19977;-90
2022/01/29 13:41:33;;;;;;;;;;;10.80;99.90;;;;;;5097636;28;19924;-88
2022/01/29 13:44:08;;;;;;;;;;;10.90;99.90;;;;;;5094911;28;19924;-87
2022/01/29 13:46:35;;;;;;;;;;;10.90;99.90;;;;;;5078109;28;19928;-87
2022/01/29 13:49:03;;;;;;;;;;;10.90;99.90;;;;;;5095909;28;19969;-88
2022/01/29 13:51:31;;;;;;;;;;;11.00;99.90;;;;;;5093374;28;19924;-87
2022/01/29 13:53:59;;;;;;;;;;;11.00;99.90;;;;;;5092581;28;20435;-87
2022/01/29 13:56:27;;;;;;;;;;;11.20;99.90;;;;;;5093866;28;20262;-86
2022/01/29 13:58:56;;;;;;;;;;;11.30;99.90;;;;;;5094504;28;19967;-87
2022/01/29 14:01:37;;;;;;;;;;;11.10;99.90;;;;;;5093250;28;20378;-87
2022/01/29 14:04:04;;;;;;;;;;;10.80;99.90;;;;;;5090829;28;19932;-87
2022/01/29 14:06:37;;;;;;;;;;;11.00;99.90;;;;;;5093808;28;19924;-87
2022/01/29 14:09:17;;;;;;;;;;;11.00;99.90;;;;;;5084953;28;20000;-86
2022/01/29 14:12:00;;;;;;;;;;;11.00;99.90;;;;;;5094249;28;19981;-86
2022/01/29 14:14:27;;;;;;;;;;;11.00;99.90;;;;;;5094856;28;19924;-87
2022/01/29 14:16:54;;;;;;;;;;;11.00;99.90;;;;;;5093457;28;19981;-87
2022/01/29 14:19:21;;;;;;;;;;;11.20;99.90;;;;;;5095803;28;19969;-86
2022/01/29 14:21:50;;;;;;;;;;;11.10;99.90;;;;;;5093175;28;20381;-89
2022/01/29 14:24:19;;;;;;;;;;;11.10;99.90;;;;;;5095316;28;19938;-90
2022/01/29 14:26:46;;;;;;;;;;;11.00;99.90;;;;;;5103633;28;19931;-88
2022/01/29 14:29:13;;;;;;;;;;;11.20;99.90;;;;;;5108079;28;19946;-88
2022/01/29 14:31:44;;;;;;;;;;;11.00;99.90;;;;;;5100200;28;19969;-88